createdAt,value
2019-05-02T00:01:44.590Z,99958.53
2019-05-02T00:04:23.160Z,99954.63
2019-05-02T00:07:25.395Z,99958.57
2019-05-02T00:10:08.760Z,99957.89
2019-05-02T00:12:47.650Z,99953.17
2019-05-02T00:15:33.153Z,99946.20
2019-05-02T00:18:10.127Z,99945.00
2019-05-02T00:20:47.956Z,99942.83
2019-05-02T00:23:28.436Z,99933.02
2019-05-02T00:26:24.808Z,99942.93
2019-05-02T00:29:04.461Z,99937.53
2019-05-02T00:31:50.225Z,99933.44
2019-05-02T00:34:32.291Z,99931.13
2019-05-02T00:37:18.725Z,99928.41
2019-05-02T00:39:49.300Z,99923.11
2019-05-02T00:42:46.254Z,99923.71
2019-05-02T00:45:27.185Z,99925.13
2019-05-02T00:48:05.680Z,99919.94
2019-05-02T00:50:54.693Z,99919.09
2019-05-02T00:53:48.369Z,99937.71
2019-05-02T00:56:53.767Z,99936.31
2019-05-02T00:59:27.931Z,99931.30
2019-05-02T01:04:52.314Z,99935.86
2019-05-02T01:07:26.944Z,99935.53
2019-05-02T01:10:11.408Z,99934.32
2019-05-02T01:12:54.863Z,99936.62
2019-05-02T01:15:39.016Z,99931.37
2019-05-02T01:18:44.737Z,99940.09
2019-05-02T01:21:26.993Z,99937.93
2019-05-02T01:24:02.988Z,99934.55
2019-05-02T01:26:47.826Z,99936.22
2019-05-02T01:29:41.157Z,99947.19
2019-05-02T01:33:01.267Z,99938.85
2019-05-02T01:36:11.328Z,99933.70
2019-05-02T01:38:49.187Z,99935.94
2019-05-02T01:41:29.192Z,99941.48
2019-05-02T01:44:02.444Z,99938.85
2019-05-02T01:46:42.348Z,99944.80
2019-05-02T01:49:21.847Z,99942.80
2019-05-02T01:51:58.579Z,99942.06
2019-05-02T01:54:48.350Z,99942.91
2019-05-02T01:57:34.831Z,99944.09
2019-05-02T02:00:17.227Z,99932.90
2019-05-02T02:03:12.294Z,99944.77
2019-05-02T02:06:09.996Z,99937.75
2019-05-02T02:08:44.131Z,99943.69
2019-05-02T02:11:17.475Z,99940.61
2019-05-02T02:13:49.339Z,99935.66
2019-05-02T02:16:21.226Z,99938.22
2019-05-02T02:19:04.100Z,99938.48
2019-05-02T02:21:42.849Z,99938.81
2019-05-02T02:24:43.747Z,99941.38
2019-05-02T02:27:15.456Z,99942.69
2019-05-02T02:29:56.544Z,99942.75
2019-05-02T02:32:48.140Z,99938.98
2019-05-02T02:35:23.966Z,99944.02
2019-05-02T02:38:03.456Z,99941.29
2019-05-02T02:40:42.907Z,99942.66
2019-05-02T02:43:32.886Z,99937.24
2019-05-02T02:46:14.830Z,99946.03
2019-05-02T02:48:50.327Z,99944.58
2019-05-02T02:51:24.030Z,99938.94
2019-05-02T02:54:02.639Z,99944.31
2019-05-02T02:56:40.720Z,99940.53
2019-05-02T02:59:19.382Z,99936.88
2019-05-02T03:01:46.221Z,99939.72
2019-05-02T03:04:17.946Z,99934.93
2019-05-02T03:06:50.095Z,99936.70
2019-05-02T03:09:26.500Z,99938.34
2019-05-02T03:12:12.990Z,99933.00
2019-05-02T03:14:52.717Z,99925.08
2019-05-02T03:17:26.675Z,99931.11
2019-05-02T03:20:01.236Z,99928.34
2019-05-02T03:22:41.805Z,99924.80
2019-05-02T03:25:27.059Z,99927.36
2019-05-02T03:27:58.096Z,99923.33
2019-05-02T03:30:38.127Z,99918.08
2019-05-02T03:33:18.435Z,99916.77
2019-05-02T03:35:52.085Z,99928.51
2019-05-02T03:38:43.460Z,99927.98
2019-05-02T03:41:23.466Z,99921.80
2019-05-02T03:44:11.370Z,99923.95
2019-05-02T03:46:37.376Z,99926.52
2019-05-02T03:49:48.521Z,99923.44
2019-05-02T03:52:43.357Z,99928.98
2019-05-02T03:55:15.212Z,99932.33
2019-05-02T03:57:52.526Z,99935.71
2019-05-02T04:00:24.590Z,99927.02
2019-05-02T04:03:02.512Z,99924.98
2019-05-02T04:05:40.465Z,99928.16
2019-05-02T04:08:21.272Z,99934.23
2019-05-02T04:11:37.842Z,99932.86
2019-05-02T04:14:14.756Z,99926.63
2019-05-02T04:16:48.694Z,99930.41
2019-05-02T04:19:35.031Z,99928.47
2019-05-02T04:22:11.781Z,99932.80
2019-05-02T04:24:47.746Z,99925.66
2019-05-02T04:27:17.018Z,99931.73
2019-05-02T04:29:55.031Z,99934.44
2019-05-02T04:32:34.163Z,99936.22
2019-05-02T04:35:07.181Z,99930.17
2019-05-02T04:37:48.747Z,99934.34
2019-05-02T04:40:47.212Z,99930.31
2019-05-02T04:43:51.483Z,99925.00
2019-05-02T04:46:26.985Z,99923.98
2019-05-02T04:48:55.215Z,99928.78
2019-05-02T04:51:31.987Z,99929.56
2019-05-02T04:54:03.944Z,99923.23
2019-05-02T04:56:49.502Z,99926.88
2019-05-02T04:59:23.020Z,99928.36
2019-05-02T05:01:57.608Z,99926.81
2019-05-02T05:04:27.698Z,99930.00
2019-05-02T05:07:08.945Z,99937.02
2019-05-02T05:09:40.441Z,99934.55
2019-05-02T05:12:12.370Z,99935.16
2019-05-02T05:14:47.530Z,99938.70
2019-05-02T05:17:20.139Z,99936.16
2019-05-02T05:19:52.493Z,99931.52
2019-05-02T05:22:28.360Z,99940.87
2019-05-02T05:25:17.736Z,99938.39
2019-05-02T05:27:52.636Z,99935.52
2019-05-02T05:30:23.113Z,99936.00
2019-05-02T05:32:54.982Z,99936.14
2019-05-02T05:35:28.230Z,99938.28
2019-05-02T05:38:00.993Z,99940.59
2019-05-02T05:40:32.696Z,99940.63
2019-05-02T05:43:20.618Z,99943.83
2019-05-02T05:45:56.339Z,99945.66
2019-05-02T05:48:27.407Z,99943.92
2019-05-02T05:50:59.535Z,99936.17
2019-05-02T05:53:31.539Z,99939.79
2019-05-02T05:56:03.607Z,99933.88
2019-05-02T05:58:39.756Z,99938.14
2019-05-02T06:01:10.255Z,99942.30
2019-05-02T06:03:44.992Z,99939.20
2019-05-02T06:06:22.870Z,99944.47
2019-05-02T06:08:53.583Z,99952.89
2019-05-02T06:11:22.570Z,99941.91
2019-05-02T06:13:54.476Z,99940.83
2019-05-02T06:16:26.462Z,99936.05
2019-05-02T06:18:58.168Z,99943.47
2019-05-02T06:21:31.869Z,99941.70
2019-05-02T06:24:03.688Z,99935.45
2019-05-02T06:26:35.531Z,99934.69
2019-05-02T06:29:07.376Z,99938.50
2019-05-02T06:31:43.155Z,99938.61
2019-05-02T06:34:12.836Z,99938.55
2019-05-02T06:36:44.536Z,99937.09
2019-05-02T06:39:16.410Z,99937.78
2019-05-02T06:41:52.115Z,99933.36
2019-05-02T06:44:23.974Z,99930.80
2019-05-02T06:46:59.206Z,99932.89
2019-05-02T06:49:28.604Z,99936.95
2019-05-02T06:52:00.268Z,99930.22
2019-05-02T06:54:32.137Z,99934.31
2019-05-02T06:57:04.075Z,99946.00
2019-05-02T06:59:36.186Z,99936.72
2019-05-02T07:02:08.080Z,99940.12
2019-05-02T07:04:40.344Z,99947.10
2019-05-02T07:07:13.178Z,99942.08
2019-05-02T07:09:45.957Z,99934.44
2019-05-02T07:12:18.063Z,99938.73
2019-05-02T07:14:50.012Z,99933.90
2019-05-02T07:17:38.289Z,99929.25
2019-05-02T07:20:09.871Z,99935.30
2019-05-02T07:22:41.772Z,99943.85
2019-05-02T07:25:16.169Z,99933.77
2019-05-02T07:27:48.071Z,99938.05
2019-05-02T07:30:20.320Z,99934.91
2019-05-02T07:32:56.300Z,99934.59
2019-05-02T07:35:26.174Z,99933.55
2019-05-02T07:37:57.985Z,99934.18
2019-05-02T07:40:31.044Z,99934.11
2019-05-02T07:43:02.731Z,99931.24
2019-05-02T07:45:34.651Z,99940.30
2019-05-02T07:48:06.996Z,99933.88
2019-05-02T07:50:41.147Z,99933.45
2019-05-02T07:53:16.129Z,99933.00
2019-05-02T07:55:49.298Z,99929.22
2019-05-02T07:58:21.116Z,99923.39
2019-05-02T08:00:53.442Z,99925.89
2019-05-02T08:03:29.473Z,99920.50
2019-05-02T08:05:59.908Z,99920.21
2019-05-02T08:08:31.971Z,99924.59
2019-05-02T08:11:04.740Z,99924.13
2019-05-02T08:13:36.816Z,99930.37
2019-05-02T08:16:08.526Z,99928.03
2019-05-02T08:18:40.222Z,99931.13
2019-05-02T08:21:12.578Z,99923.85
2019-05-02T08:23:44.491Z,99921.50
2019-05-02T08:26:21.487Z,99923.06
2019-05-02T08:28:55.172Z,99917.41
2019-05-02T08:31:30.026Z,99916.99
2019-05-02T08:34:05.209Z,99920.62
2019-05-02T08:36:34.293Z,99920.64
2019-05-02T08:39:08.122Z,99916.94
2019-05-02T08:41:40.618Z,99914.78
2019-05-02T08:44:16.835Z,99914.42
2019-05-02T08:46:50.860Z,99903.84
2019-05-02T08:49:20.119Z,99901.42
2019-05-02T08:51:51.977Z,99901.70
2019-05-02T08:54:28.073Z,99900.87
2019-05-02T08:57:06.334Z,99907.03
2019-05-02T08:59:41.244Z,99906.30
2019-05-02T09:02:13.214Z,99904.14
2019-05-02T09:05:04.516Z,99896.91
2019-05-02T09:07:37.162Z,99890.74
2019-05-02T09:10:21.826Z,99885.33
2019-05-02T09:12:52.063Z,99879.18
2019-05-02T09:15:24.013Z,99869.42
2019-05-02T09:17:56.649Z,99872.78
2019-05-02T09:20:29.221Z,99870.50
2019-05-02T09:23:01.752Z,99860.14
2019-05-02T09:25:33.585Z,99863.75
2019-05-02T09:28:06.306Z,99860.49
2019-05-02T09:30:38.009Z,99860.38
2019-05-02T09:33:11.672Z,99849.86
2019-05-02T09:35:43.868Z,99858.05
2019-05-02T09:38:16.385Z,99854.03
2019-05-02T09:40:54.611Z,99847.38
2019-05-02T09:43:22.950Z,99840.73
2019-05-02T09:45:54.763Z,99844.22
2019-05-02T09:48:27.261Z,99846.73
2019-05-02T09:51:06.002Z,99837.39
2019-05-02T09:53:32.519Z,99843.20
2019-05-02T09:56:04.234Z,99842.20
2019-05-02T09:58:36.687Z,99834.48
2019-05-02T10:01:15.255Z,99833.52
2019-05-02T10:03:47.371Z,99828.89
2019-05-02T10:06:19.112Z,99818.23
2019-05-02T10:08:51.964Z,99821.92
2019-05-02T10:11:26.069Z,99817.78
2019-05-02T10:13:58.245Z,99817.63
2019-05-02T10:16:31.902Z,99810.34
2019-05-02T10:19:09.495Z,99803.81
2019-05-02T10:21:36.913Z,99797.73
2019-05-02T10:24:08.777Z,99794.76
2019-05-02T10:26:41.941Z,99805.69
2019-05-02T10:29:14.779Z,99799.35
2019-05-02T10:31:46.875Z,99792.20
2019-05-02T10:34:19.152Z,99795.75
2019-05-02T10:36:54.146Z,99788.52
2019-05-02T10:39:28.459Z,99784.97
2019-05-02T10:41:58.083Z,99775.11
2019-05-02T10:44:32.831Z,99785.22
2019-05-02T10:47:04.175Z,99784.97
2019-05-02T10:49:55.498Z,99775.48
2019-05-02T10:52:34.047Z,99771.01
2019-05-02T10:55:02.674Z,99765.06
2019-05-02T10:57:34.482Z,99761.02
2019-05-02T11:00:09.298Z,99755.14
2019-05-02T11:03:05.730Z,99748.75
2019-05-02T11:05:39.312Z,99750.31
2019-05-02T11:08:12.005Z,99744.49
2019-05-02T11:10:44.656Z,99739.00
2019-05-02T11:13:38.024Z,99746.44
2019-05-02T11:16:35.625Z,99741.92
2019-05-02T11:19:13.249Z,99735.06
2019-05-02T11:21:55.784Z,99732.88
2019-05-02T11:24:19.102Z,99728.68
2019-05-02T11:26:52.837Z,99722.42
2019-05-02T11:29:24.613Z,99729.02
2019-05-02T11:31:57.283Z,99721.75
2019-05-02T11:34:29.013Z,99719.53
2019-05-02T11:37:01.758Z,99718.00
2019-05-02T11:39:43.733Z,99710.50
2019-05-02T11:42:08.161Z,99703.47
2019-05-02T11:44:41.758Z,99708.23
2019-05-02T11:47:17.293Z,99715.30
2019-05-02T11:49:52.100Z,99710.10
2019-05-02T11:52:22.614Z,99706.54
2019-05-02T11:54:54.450Z,99704.41
2019-05-02T11:57:28.481Z,99698.22
2019-05-02T12:00:04.947Z,99695.69
2019-05-02T12:03:02.272Z,99693.80
2019-05-02T12:05:43.373Z,99699.61
2019-05-02T12:08:15.988Z,99693.38
2019-05-02T12:10:48.093Z,99686.45
2019-05-02T12:13:20.304Z,99691.62
2019-05-02T12:15:52.437Z,99686.09
2019-05-02T12:18:24.872Z,99694.70
2019-05-02T12:20:57.006Z,99687.81
2019-05-02T12:23:29.114Z,99682.83
2019-05-02T12:26:02.733Z,99679.35
2019-05-02T12:28:34.597Z,99681.39
2019-05-02T12:31:08.091Z,99676.30
2019-05-02T12:33:42.682Z,99674.53
2019-05-02T12:36:14.587Z,99672.56
2019-05-02T12:38:46.292Z,99668.10
2019-05-02T12:41:21.985Z,99669.27
2019-05-02T12:43:52.437Z,99671.72
2019-05-02T12:46:24.360Z,99672.92
2019-05-02T12:48:56.370Z,99666.73
2019-05-02T12:51:28.731Z,99658.73
2019-05-02T12:54:02.245Z,99656.27
2019-05-02T12:56:34.289Z,99661.61
2019-05-02T12:59:06.179Z,99658.58
2019-05-02T13:01:37.988Z,99650.98
2019-05-02T13:04:12.431Z,99646.98
2019-05-02T13:06:44.486Z,99646.80
2019-05-02T13:09:17.028Z,99640.52
2019-05-02T13:12:02.870Z,99631.58
2019-05-02T13:14:35.504Z,99631.49
2019-05-02T13:17:07.618Z,99630.04
2019-05-02T13:19:41.404Z,99617.20
2019-05-02T13:22:32.521Z,99621.56
2019-05-02T13:25:10.315Z,99609.04
2019-05-02T13:27:44.229Z,99609.36
2019-05-02T13:30:24.649Z,99604.45
2019-05-02T13:33:02.503Z,99600.13
2019-05-02T13:35:39.677Z,99593.15
2019-05-02T13:38:13.018Z,99590.06
2019-05-02T13:40:45.842Z,99589.05
2019-05-02T13:43:19.280Z,99589.57
2019-05-02T13:46:14.961Z,99583.55
2019-05-02T13:48:47.355Z,99581.74
2019-05-02T13:51:19.183Z,99575.80
2019-05-02T13:54:02.249Z,99575.99
2019-05-02T13:56:52.881Z,99571.12
2019-05-02T13:59:24.858Z,99570.75
2019-05-02T14:01:56.928Z,99563.36
2019-05-02T14:04:28.712Z,99559.33
2019-05-02T14:07:02.783Z,99557.79
2019-05-02T14:09:44.044Z,99553.66
2019-05-02T14:12:47.463Z,99546.84
2019-05-02T14:15:22.492Z,99541.35
2019-05-02T14:17:54.250Z,99543.83
2019-05-02T14:20:26.446Z,99537.97
2019-05-02T14:22:58.344Z,99532.77
2019-05-02T14:25:32.205Z,99529.11
2019-05-02T14:28:03.761Z,99525.66
2019-05-02T14:30:40.034Z,99521.69
2019-05-02T14:33:15.226Z,99520.37
2019-05-02T14:35:47.042Z,99521.46
2019-05-02T14:38:18.773Z,99513.64
2019-05-02T14:41:21.848Z,99519.34
2019-05-02T14:43:56.940Z,99507.47
2019-05-02T14:46:34.291Z,99509.28
2019-05-02T14:49:02.945Z,99510.12
2019-05-02T14:51:36.723Z,99510.27
2019-05-02T14:54:09.745Z,99518.92
2019-05-02T14:56:58.531Z,99515.70
2019-05-02T14:59:32.146Z,99512.00
2019-05-02T15:02:07.888Z,99517.84
2019-05-02T15:04:44.669Z,99513.02
2019-05-02T15:07:17.584Z,99520.84
2019-05-02T15:09:46.747Z,99517.80
2019-05-02T15:12:19.109Z,99514.97
2019-05-02T15:14:57.373Z,99512.08
2019-05-02T15:17:27.974Z,99511.37
2019-05-02T15:19:58.238Z,99512.31
2019-05-02T15:22:33.095Z,99513.41
2019-05-02T15:25:08.023Z,99511.28
2019-05-02T15:27:41.837Z,99515.17
2019-05-02T15:30:15.995Z,99511.06
2019-05-02T15:33:05.288Z,99524.00
2019-05-02T15:35:57.297Z,99527.03
2019-05-02T15:38:28.444Z,99571.25
2019-05-02T15:41:15.385Z,99582.10
2019-05-02T15:43:49.225Z,99575.00
2019-05-02T15:46:23.699Z,99575.73
2019-05-02T15:48:57.193Z,99582.27
2019-05-02T15:51:28.382Z,99593.62
2019-05-02T15:54:08.513Z,99604.85
2019-05-02T15:56:59.910Z,99619.99
2019-05-02T15:59:42.332Z,99637.11
2019-05-02T16:02:13.079Z,99639.98
2019-05-02T16:04:45.100Z,99632.88
2019-05-02T16:07:16.889Z,99649.61
2019-05-02T16:09:51.620Z,99659.11
2019-05-02T16:12:27.072Z,99658.61
2019-05-02T16:14:56.400Z,99660.83
2019-05-02T16:17:29.302Z,99664.64
2019-05-02T16:20:10.887Z,99674.55
2019-05-02T16:22:46.280Z,99675.54
2019-05-02T16:25:20.048Z,99690.31
2019-05-02T16:27:49.723Z,99686.30
2019-05-02T16:30:23.832Z,99683.99
2019-05-02T16:32:58.007Z,99673.86
2019-05-02T16:35:31.587Z,99672.41
2019-05-02T16:38:03.393Z,99677.55
2019-05-02T16:40:35.485Z,99664.56
2019-05-02T16:43:08.461Z,99662.98
2019-05-02T16:45:41.682Z,99654.45
2019-05-02T16:48:13.941Z,99650.24
2019-05-02T16:50:45.910Z,99649.87
2019-05-02T16:53:22.593Z,99648.67
2019-05-02T16:55:53.551Z,99653.62
2019-05-02T16:58:24.997Z,99649.77
2019-05-02T17:00:57.695Z,99646.53
2019-05-02T17:03:31.498Z,99641.97
2019-05-02T17:06:03.231Z,99637.86
2019-05-02T17:08:49.459Z,99637.75
2019-05-02T17:11:34.497Z,99625.59
2019-05-02T17:14:07.051Z,99634.75
2019-05-02T17:16:37.177Z,99623.92
2019-05-02T17:19:08.995Z,99625.25
2019-05-02T17:21:53.111Z,99625.11
2019-05-02T17:24:17.329Z,99624.16
2019-05-02T17:26:48.562Z,99622.46
2019-05-02T17:29:22.651Z,99620.91
2019-05-02T17:31:59.117Z,99615.72
2019-05-02T17:34:30.617Z,99618.48
2019-05-02T17:37:06.259Z,99618.25
2019-05-02T17:39:37.250Z,99621.11
2019-05-02T17:42:10.153Z,99626.66
2019-05-02T17:44:43.850Z,99623.41
2019-05-02T17:47:15.606Z,99624.11
2019-05-02T17:49:47.633Z,99632.30
2019-05-02T17:52:42.648Z,99636.73
2019-05-02T17:55:15.098Z,99638.41
2019-05-02T17:58:16.116Z,99638.28
2019-05-02T18:00:54.475Z,99637.38
2019-05-02T18:03:30.728Z,99639.73
2019-05-02T18:05:57.172Z,99637.68
2019-05-02T18:08:29.055Z,99637.28
2019-05-02T18:11:02.847Z,99639.32
2019-05-02T18:13:35.438Z,99637.25
2019-05-02T18:16:12.677Z,99637.59
2019-05-02T18:18:43.718Z,99640.59
2019-05-02T18:21:17.243Z,99641.03
2019-05-02T18:23:57.077Z,99645.91
2019-05-02T18:26:27.557Z,99642.29
2019-05-02T18:29:05.030Z,99641.31
2019-05-02T18:31:34.781Z,99644.66
2019-05-02T18:34:06.659Z,99646.42
2019-05-02T18:36:38.564Z,99653.36
2019-05-02T18:39:12.862Z,99658.52
2019-05-02T18:41:46.300Z,99664.95
2019-05-02T18:44:18.794Z,99670.80
2019-05-02T18:46:51.912Z,99681.29
2019-05-02T18:49:23.887Z,99673.31
2019-05-02T18:51:57.462Z,99675.66
2019-05-02T18:54:29.467Z,99674.39
2019-05-02T18:57:02.488Z,99692.73
2019-05-02T18:59:34.479Z,99689.09
2019-05-02T19:02:06.370Z,99696.84
2019-05-02T19:04:39.848Z,99695.36
2019-05-02T19:07:12.969Z,99701.59
2019-05-02T19:09:58.848Z,99701.72
2019-05-02T19:12:42.048Z,99709.36
2019-05-02T19:15:14.345Z,99716.52
2019-05-02T19:17:46.575Z,99716.75
2019-05-02T19:20:37.987Z,99718.38
2019-05-02T19:23:12.343Z,99725.30
2019-05-02T19:25:44.436Z,99730.42
2019-05-02T19:28:19.764Z,99726.18
2019-05-02T19:30:51.982Z,99726.40
2019-05-02T19:33:23.832Z,99730.08
2019-05-02T19:35:55.709Z,99724.16
2019-05-02T19:38:27.565Z,99731.42
2019-05-02T19:41:05.396Z,99738.52
2019-05-02T19:43:34.938Z,99735.88
2019-05-02T19:46:17.079Z,99739.84
2019-05-02T19:48:51.530Z,99745.94
2019-05-02T19:51:23.692Z,99738.99
2019-05-02T19:54:12.197Z,99739.34
2019-05-02T19:57:04.691Z,99741.50
2019-05-02T19:59:37.139Z,99736.45
2019-05-02T20:02:11.903Z,99742.87
2019-05-02T20:04:46.560Z,99749.28
2019-05-02T20:07:22.664Z,99747.23
2019-05-02T20:10:01.894Z,99748.74
2019-05-02T20:12:40.973Z,99745.84
2019-05-02T20:15:25.435Z,99738.61
2019-05-02T20:18:09.686Z,99736.50
2019-05-02T20:20:51.979Z,99738.38
2019-05-02T20:23:35.647Z,99745.66
2019-05-02T20:26:09.488Z,99738.14
2019-05-02T20:28:53.875Z,99743.72
2019-05-02T20:31:25.913Z,99742.96
2019-05-02T20:34:15.816Z,99737.52
2019-05-02T20:36:55.191Z,99742.16
2019-05-02T20:39:29.308Z,99735.39
2019-05-02T20:42:07.932Z,99732.94
2019-05-02T20:44:46.709Z,99740.12
2019-05-02T20:47:44.746Z,99737.57
2019-05-02T20:50:22.400Z,99743.22
2019-05-02T20:53:05.654Z,99749.44
2019-05-02T20:55:56.124Z,99747.64
2019-05-02T20:58:35.776Z,99747.91
2019-05-02T21:01:21.095Z,99739.52
2019-05-02T21:04:04.922Z,99742.63
2019-05-02T21:06:53.581Z,99737.83
2019-05-02T21:09:52.459Z,99741.05
2019-05-02T21:12:50.138Z,99735.78
2019-05-02T21:15:44.669Z,99738.41
2019-05-02T21:18:27.313Z,99735.78
2019-05-02T21:21:09.567Z,99735.31
2019-05-02T21:23:56.545Z,99739.64
2019-05-02T21:26:41.989Z,99738.89
2019-05-02T21:29:19.487Z,99748.67
2019-05-02T21:31:59.523Z,99749.98
2019-05-02T21:34:47.451Z,99752.16
2019-05-02T21:37:27.698Z,99749.52
2019-05-02T21:40:08.684Z,99757.90
2019-05-02T21:42:59.294Z,99757.44
2019-05-02T21:45:49.128Z,99753.39
2019-05-02T21:48:33.342Z,99756.03
2019-05-02T21:51:36.440Z,99758.37
2019-05-02T21:54:37.212Z,99760.19
2019-05-02T21:57:17.364Z,99766.40
2019-05-02T21:59:52.963Z,99764.96
2019-05-02T22:02:29.752Z,99767.89
2019-05-02T22:05:08.269Z,99764.41
2019-05-02T22:07:43.764Z,99762.83
2019-05-02T22:10:28.671Z,99768.45
2019-05-02T22:13:18.026Z,99773.63
2019-05-02T22:15:53.717Z,99771.08
2019-05-02T22:18:29.055Z,99767.72
2019-05-02T22:21:07.276Z,99769.97
2019-05-02T22:24:10.524Z,99767.89
2019-05-02T22:26:37.230Z,99767.52
2019-05-02T22:29:14.652Z,99767.16
2019-05-02T22:32:15.283Z,99765.93
2019-05-02T22:34:55.845Z,99767.72
2019-05-02T22:38:18.322Z,99762.73
2019-05-02T22:41:03.544Z,99762.09
2019-05-02T22:43:53.964Z,99762.09
2019-05-02T22:46:49.085Z,99768.89
2019-05-02T22:49:29.365Z,99763.52
2019-05-02T22:52:06.789Z,99761.73
2019-05-02T22:54:42.851Z,99763.72
2019-05-02T22:57:20.073Z,99758.16
2019-05-02T23:00:01.776Z,99763.98
2019-05-02T23:02:41.892Z,99763.63
2019-05-02T23:05:14.072Z,99765.11
2019-05-02T23:07:46.096Z,99766.16
2019-05-02T23:10:17.928Z,99767.95
2019-05-02T23:13:12.928Z,99770.58
2019-05-02T23:15:42.679Z,99768.88
2019-05-02T23:18:20.392Z,99774.34
2019-05-02T23:21:02.127Z,99774.91
2019-05-02T23:23:52.269Z,99775.56
2019-05-02T23:26:59.127Z,99777.91
2019-05-02T23:29:58.368Z,99780.97
2019-05-02T23:32:55.802Z,99781.05
2019-05-02T23:35:49.671Z,99773.06
2019-05-02T23:38:32.348Z,99783.00
2019-05-02T23:41:29.810Z,99782.03
2019-05-02T23:44:12.314Z,99780.37
2019-05-02T23:46:54.460Z,99779.52
2019-05-02T23:52:47.753Z,99780.07
2019-05-02T23:55:42.326Z,99784.02
2019-05-02T23:58:22.495Z,99780.92
